createdAt,value
2022-10-19T00:00:15.484Z,96.79
2022-10-19T00:02:43.160Z,96.90
2022-10-19T00:05:11.003Z,96.55
2022-10-19T00:07:40.127Z,96.14
2022-10-19T00:10:08.110Z,95.92
2022-10-19T00:12:35.715Z,95.66
2022-10-19T00:15:03.499Z,95.78
2022-10-19T00:17:31.578Z,95.64
2022-10-19T00:19:59.635Z,95.79
2022-10-19T00:22:27.228Z,96.43
2022-10-19T00:24:57.433Z,96.95
2022-10-19T00:27:25.083Z,97.18
2022-10-19T00:29:53.742Z,97.39
2022-10-19T00:32:21.316Z,97.28
2022-10-19T00:34:49.082Z,97.64
2022-10-19T00:37:16.816Z,98.34
2022-10-19T00:39:44.480Z,98.52
2022-10-19T00:42:13.834Z,98.64
2022-10-19T00:45:13.557Z,98.89
2022-10-19T00:47:41.956Z,98.56
2022-10-19T00:50:11.869Z,98.84
2022-10-19T00:52:39.604Z,98.61
2022-10-19T00:55:09.099Z,98.80
2022-10-19T00:57:38.289Z,98.23
2022-10-19T01:00:08.004Z,98.14
2022-10-19T01:02:36.166Z,97.62
2022-10-19T01:05:05.117Z,98.03
2022-10-19T01:07:33.474Z,98.51
2022-10-19T01:10:02.141Z,98.63
2022-10-19T01:12:51.542Z,99.56
2022-10-19T01:15:29.464Z,99.63
2022-10-19T01:18:05.854Z,99.24
2022-10-19T01:21:13.157Z,99.55
2022-10-19T01:24:18.949Z,99.49
2022-10-19T01:27:16.348Z,100.00
2022-10-19T01:30:08.692Z,99.85
2022-10-19T01:32:47.615Z,100.00
2022-10-19T01:35:25.910Z,99.66
2022-10-19T01:38:03.104Z,99.60
2022-10-19T01:40:37.416Z,99.77
2022-10-19T01:43:11.122Z,99.28
2022-10-19T01:45:46.135Z,99.70
2022-10-19T01:48:17.669Z,99.89
2022-10-19T01:50:51.608Z,100.00
2022-10-19T01:53:21.475Z,99.85
2022-10-19T01:55:52.141Z,99.82
2022-10-19T01:58:25.478Z,99.14
2022-10-19T02:00:57.135Z,98.87
2022-10-19T02:03:26.743Z,99.36
2022-10-19T02:05:55.094Z,99.62
2022-10-19T02:08:28.486Z,99.21
2022-10-19T02:10:59.891Z,98.94
2022-10-19T02:13:29.632Z,99.27
2022-10-19T02:16:02.339Z,99.48
2022-10-19T02:18:34.038Z,99.54
2022-10-19T02:21:02.442Z,100.00
2022-10-19T02:23:30.175Z,100.00
2022-10-19T02:25:58.578Z,99.64
2022-10-19T02:28:27.241Z,99.25
2022-10-19T02:30:54.954Z,99.38
2022-10-19T02:33:24.405Z,99.06
2022-10-19T02:35:52.222Z,98.69
2022-10-19T02:38:22.568Z,97.61
2022-10-19T02:40:57.085Z,96.46
2022-10-19T02:43:27.786Z,96.64
2022-10-19T02:46:01.368Z,96.77
2022-10-19T02:48:32.900Z,96.86
2022-10-19T02:51:00.507Z,96.87
2022-10-19T02:53:28.085Z,96.56
2022-10-19T02:55:55.717Z,96.71
2022-10-19T02:58:23.307Z,96.18
2022-10-19T03:00:50.898Z,95.88
2022-10-19T03:03:18.555Z,95.49
2022-10-19T03:05:47.484Z,95.07
2022-10-19T03:08:15.002Z,94.91
2022-10-19T03:10:42.519Z,94.95
2022-10-19T03:13:10.085Z,95.98
2022-10-19T03:15:37.781Z,95.86
2022-10-19T03:18:05.416Z,96.35
2022-10-19T03:20:33.003Z,96.58
2022-10-19T03:23:01.893Z,96.64
2022-10-19T03:25:29.421Z,96.89
2022-10-19T03:27:57.045Z,97.31
2022-10-19T03:30:24.678Z,97.89
2022-10-19T03:32:52.201Z,97.79
2022-10-19T03:35:19.884Z,97.99
2022-10-19T03:37:47.491Z,98.76
2022-10-19T03:40:16.593Z,98.83
2022-10-19T03:42:44.152Z,98.53
2022-10-19T03:45:12.045Z,98.69
2022-10-19T03:47:39.561Z,99.23
2022-10-19T03:50:11.037Z,99.70
2022-10-19T03:52:38.641Z,99.83
2022-10-19T03:55:07.130Z,99.69
2022-10-19T03:57:36.374Z,99.46
2022-10-19T04:00:04.756Z,99.75
2022-10-19T04:02:32.297Z,99.57
2022-10-19T04:04:59.825Z,99.64
2022-10-19T04:07:27.515Z,99.46
2022-10-19T04:09:55.103Z,99.47
2022-10-19T04:12:22.649Z,99.32
2022-10-19T04:14:57.245Z,99.81
2022-10-19T04:17:26.275Z,99.23
2022-10-19T04:19:53.848Z,98.77
2022-10-19T04:22:21.431Z,98.55
2022-10-19T04:24:48.998Z,98.04
2022-10-19T04:27:16.601Z,97.60
2022-10-19T04:29:44.171Z,97.55
2022-10-19T04:32:13.061Z,96.99
2022-10-19T04:34:40.669Z,96.89
2022-10-19T04:37:08.216Z,96.72
2022-10-19T04:39:39.319Z,97.34
2022-10-19T04:42:07.008Z,97.26
2022-10-19T04:44:34.569Z,97.12
2022-10-19T04:47:02.148Z,96.42
2022-10-19T04:49:31.068Z,96.97
2022-10-19T04:51:58.584Z,96.99
2022-10-19T04:54:26.388Z,96.95
2022-10-19T04:56:54.365Z,97.25
2022-10-19T04:59:21.993Z,97.53
2022-10-19T05:01:49.555Z,97.71
2022-10-19T05:04:17.196Z,97.39
2022-10-19T05:06:46.106Z,98.04
2022-10-19T05:09:13.745Z,98.51
2022-10-19T05:11:41.382Z,98.32
2022-10-19T05:14:09.023Z,98.57
2022-10-19T05:16:36.579Z,98.80
2022-10-19T05:19:04.218Z,98.66
2022-10-19T05:21:31.937Z,98.55
2022-10-19T05:24:00.852Z,98.75
2022-10-19T05:26:30.164Z,98.54
2022-10-19T05:29:01.467Z,99.00
2022-10-19T05:31:31.281Z,98.63
2022-10-19T05:33:59.956Z,98.55
2022-10-19T05:36:29.322Z,98.56
2022-10-19T05:38:58.323Z,98.21
2022-10-19T05:41:27.806Z,97.74
2022-10-19T05:43:56.799Z,97.27
2022-10-19T05:46:25.013Z,97.05
2022-10-19T05:48:52.810Z,97.43
2022-10-19T05:51:21.923Z,97.23
2022-10-19T05:53:50.156Z,96.56
2022-10-19T05:56:19.361Z,96.89
2022-10-19T05:58:49.087Z,96.78
2022-10-19T06:01:18.886Z,95.67
2022-10-19T06:03:46.674Z,95.75
2022-10-19T06:06:14.216Z,95.91
2022-10-19T06:08:41.804Z,94.90
2022-10-19T06:11:11.828Z,94.59
2022-10-19T06:13:41.215Z,94.31
2022-10-19T06:16:11.707Z,94.37
2022-10-19T06:18:40.202Z,94.14
2022-10-19T06:21:09.352Z,94.47
2022-10-19T06:23:37.882Z,94.01
2022-10-19T06:26:08.327Z,94.41
2022-10-19T06:28:37.131Z,94.51
2022-10-19T06:31:08.446Z,93.80
2022-10-19T06:33:40.704Z,93.31
2022-10-19T06:36:09.036Z,93.28
2022-10-19T06:38:36.607Z,93.46
2022-10-19T06:41:04.912Z,93.19
2022-10-19T06:43:32.735Z,92.95
2022-10-19T06:46:00.471Z,89.17
2022-10-19T06:48:27.991Z,85.06
2022-10-19T06:51:00.807Z,81.64
2022-10-19T06:53:29.161Z,78.55
2022-10-19T06:55:59.093Z,77.04
2022-10-19T06:58:27.169Z,74.58
2022-10-19T07:00:58.133Z,74.39
2022-10-19T07:03:25.989Z,73.30
2022-10-19T07:05:54.744Z,71.67
2022-10-19T07:08:24.263Z,71.50
2022-10-19T07:10:52.566Z,71.49
2022-10-19T07:13:20.350Z,71.77
2022-10-19T07:15:48.145Z,70.24
2022-10-19T07:18:15.951Z,69.49
2022-10-19T07:20:43.637Z,67.95
2022-10-19T07:23:11.198Z,67.47
2022-10-19T07:25:40.062Z,67.17
2022-10-19T07:28:07.705Z,67.62
2022-10-19T07:30:38.577Z,68.60
2022-10-19T07:33:06.674Z,70.06
2022-10-19T07:35:34.316Z,69.44
2022-10-19T07:38:02.078Z,72.32
2022-10-19T07:40:29.698Z,71.61
2022-10-19T07:42:58.709Z,73.81
2022-10-19T07:45:26.288Z,75.07
2022-10-19T07:47:53.827Z,77.40
2022-10-19T07:50:23.023Z,79.79
2022-10-19T07:52:52.496Z,80.93
2022-10-19T07:55:20.344Z,82.70
2022-10-19T07:57:49.101Z,84.05
2022-10-19T08:00:18.527Z,84.91
2022-10-19T08:03:00.074Z,85.74
2022-10-19T08:05:33.892Z,86.80
2022-10-19T08:08:01.530Z,86.21
2022-10-19T08:10:29.263Z,85.26
2022-10-19T08:12:56.890Z,84.02
2022-10-19T08:15:26.372Z,83.60
2022-10-19T08:17:53.922Z,83.34
2022-10-19T08:20:21.675Z,83.61
2022-10-19T08:22:49.327Z,83.23
2022-10-19T08:25:17.062Z,82.02
2022-10-19T08:27:44.624Z,82.51
2022-10-19T08:30:14.400Z,80.09
2022-10-19T08:32:43.381Z,79.03
2022-10-19T08:35:11.250Z,78.43
2022-10-19T08:37:44.713Z,77.56
2022-10-19T08:40:19.672Z,76.63
2022-10-19T08:42:53.557Z,77.16
2022-10-19T08:45:43.049Z,77.68
2022-10-19T08:48:33.907Z,78.81
2022-10-19T08:51:02.731Z,79.02
2022-10-19T08:53:41.190Z,79.81
2022-10-19T08:56:38.851Z,79.28
2022-10-19T08:59:19.047Z,80.00
2022-10-19T09:01:51.066Z,79.66
2022-10-19T09:04:24.784Z,80.00
2022-10-19T09:07:20.597Z,79.94
2022-10-19T09:09:52.358Z,80.04
2022-10-19T09:12:32.199Z,79.86
2022-10-19T09:15:03.469Z,80.31
2022-10-19T09:17:32.087Z,81.36
2022-10-19T09:20:14.354Z,81.27
2022-10-19T09:22:43.367Z,83.21
2022-10-19T09:25:16.274Z,84.13
2022-10-19T09:27:47.484Z,84.13
2022-10-19T09:30:19.467Z,82.96
2022-10-19T09:32:48.528Z,81.65
2022-10-19T09:35:26.687Z,83.95
2022-10-19T09:37:55.024Z,83.84
2022-10-19T09:40:25.198Z,83.60
2022-10-19T09:42:57.110Z,83.46
2022-10-19T09:45:34.404Z,82.49
2022-10-19T09:48:08.601Z,82.47
2022-10-19T09:50:44.251Z,82.45
2022-10-19T09:53:19.918Z,82.31
2022-10-19T09:55:52.360Z,83.27
2022-10-19T09:58:21.584Z,82.09
2022-10-19T10:00:51.608Z,81.73
2022-10-19T10:03:29.019Z,80.10
2022-10-19T10:05:59.656Z,78.84
2022-10-19T10:08:31.023Z,79.09
2022-10-19T10:11:07.884Z,82.03
2022-10-19T10:13:39.498Z,83.99
2022-10-19T10:16:10.281Z,82.77
2022-10-19T10:18:46.907Z,81.73
2022-10-19T10:21:25.550Z,80.88
2022-10-19T10:24:02.503Z,79.01
2022-10-19T10:26:30.509Z,79.43
2022-10-19T10:29:01.315Z,80.36
2022-10-19T10:31:31.090Z,80.58
2022-10-19T10:34:12.167Z,78.50
2022-10-19T10:36:54.473Z,77.65
2022-10-19T10:39:24.657Z,77.24
2022-10-19T10:41:52.419Z,77.08
2022-10-19T10:44:23.124Z,76.75
2022-10-19T10:46:57.910Z,77.09
2022-10-19T10:49:28.990Z,77.54
2022-10-19T10:52:01.199Z,76.35
2022-10-19T10:54:31.158Z,77.04
2022-10-19T10:57:06.942Z,76.96
2022-10-19T10:59:41.760Z,76.57
2022-10-19T11:05:00.628Z,75.87
2022-10-19T11:07:33.898Z,76.88
2022-10-19T11:10:09.935Z,75.79
2022-10-19T11:12:40.917Z,74.64
2022-10-19T11:15:18.213Z,74.63
2022-10-19T11:18:13.311Z,75.27
2022-10-19T11:20:48.299Z,75.51
2022-10-19T11:23:36.360Z,76.14
2022-10-19T11:26:14.516Z,76.06
2022-10-19T11:28:55.203Z,75.94
2022-10-19T11:31:31.244Z,76.34
2022-10-19T11:34:08.794Z,76.78
2022-10-19T11:36:47.223Z,76.81
2022-10-19T11:39:32.763Z,76.57
2022-10-19T11:42:09.734Z,77.10
2022-10-19T11:44:49.719Z,76.24
2022-10-19T11:47:29.871Z,77.05
2022-10-19T11:52:53.682Z,77.69
2022-10-19T11:55:31.961Z,77.70
2022-10-19T11:58:11.430Z,75.95
2022-10-19T12:00:46.057Z,76.83
2022-10-19T12:03:38.485Z,76.25
2022-10-19T12:06:12.935Z,78.76
2022-10-19T12:09:02.760Z,78.99
2022-10-19T12:11:46.702Z,79.69
2022-10-19T12:14:18.534Z,78.78
2022-10-19T12:16:50.603Z,79.21
2022-10-19T12:19:22.258Z,78.24
2022-10-19T12:21:51.815Z,79.43
2022-10-19T12:24:22.608Z,80.05
2022-10-19T12:26:52.740Z,80.54
2022-10-19T12:29:23.863Z,78.38
2022-10-19T12:31:53.390Z,77.77
2022-10-19T12:34:31.610Z,80.91
2022-10-19T12:37:05.361Z,79.79
2022-10-19T12:39:40.263Z,78.33
2022-10-19T12:42:19.150Z,77.44
2022-10-19T12:45:02.870Z,77.60
2022-10-19T12:47:30.489Z,77.65
2022-10-19T12:49:59.751Z,77.88
2022-10-19T12:52:40.514Z,77.67
2022-10-19T12:55:25.815Z,77.86
2022-10-19T12:58:06.924Z,77.41
2022-10-19T13:00:36.595Z,78.45
2022-10-19T13:03:08.421Z,77.00
2022-10-19T13:05:36.838Z,77.88
2022-10-19T13:08:09.378Z,79.01
2022-10-19T13:10:39.859Z,78.31
2022-10-19T13:13:51.020Z,78.49
2022-10-19T13:17:06.795Z,77.85
2022-10-19T13:19:34.799Z,78.50
2022-10-19T13:22:27.826Z,79.09
2022-10-19T13:25:23.410Z,79.17
2022-10-19T13:27:52.640Z,79.30
2022-10-19T13:31:03.342Z,79.92
2022-10-19T13:33:50.828Z,81.00
2022-10-19T13:36:19.752Z,78.57
2022-10-19T13:39:02.657Z,77.86
2022-10-19T13:41:47.729Z,79.11
2022-10-19T13:44:21.474Z,80.54
2022-10-19T13:46:55.365Z,79.07
2022-10-19T13:49:37.870Z,78.73
2022-10-19T13:52:20.556Z,79.67
2022-10-19T13:55:11.593Z,79.91
2022-10-19T13:57:59.226Z,80.21
2022-10-19T14:00:33.032Z,80.23
2022-10-19T14:03:19.166Z,80.34
2022-10-19T14:06:03.749Z,79.76
2022-10-19T14:09:13.710Z,78.87
2022-10-19T14:11:43.716Z,81.07
2022-10-19T14:14:16.512Z,80.88
2022-10-19T14:16:50.191Z,80.45
2022-10-19T14:19:26.838Z,80.47
2022-10-19T14:21:57.643Z,81.24
2022-10-19T14:24:31.313Z,81.80
2022-10-19T14:27:01.236Z,81.57
2022-10-19T14:29:29.023Z,82.25
2022-10-19T14:31:59.173Z,82.32
2022-10-19T14:34:26.938Z,82.96
2022-10-19T14:36:56.112Z,84.70
2022-10-19T14:39:27.475Z,84.80
2022-10-19T14:41:57.174Z,84.77
2022-10-19T14:44:44.872Z,84.09
2022-10-19T14:47:21.609Z,84.11
2022-10-19T14:49:50.103Z,83.54
2022-10-19T14:55:07.299Z,83.72
2022-10-19T14:57:38.086Z,83.07
2022-10-19T15:00:10.114Z,83.21
2022-10-19T15:02:40.989Z,82.92
2022-10-19T15:05:20.463Z,83.81
2022-10-19T15:07:50.086Z,84.60
2022-10-19T15:10:22.033Z,85.15
2022-10-19T15:12:51.276Z,86.00
2022-10-19T15:15:21.652Z,85.45
2022-10-19T15:17:53.836Z,85.91
2022-10-19T15:20:28.126Z,86.13
2022-10-19T15:22:57.838Z,86.56
2022-10-19T15:25:33.828Z,87.30
2022-10-19T15:28:22.041Z,87.17
2022-10-19T15:31:00.052Z,87.08
2022-10-19T15:33:28.178Z,87.02
2022-10-19T15:36:06.681Z,87.93
2022-10-19T15:38:37.848Z,88.28
2022-10-19T15:41:06.105Z,88.00
2022-10-19T15:43:38.627Z,87.67
2022-10-19T15:46:07.649Z,87.95
2022-10-19T15:48:51.149Z,87.96
2022-10-19T15:51:44.620Z,87.59
2022-10-19T15:54:17.016Z,87.83
2022-10-19T15:56:46.013Z,87.89
2022-10-19T15:59:17.014Z,88.06
2022-10-19T16:01:45.769Z,88.51
2022-10-19T16:04:13.358Z,88.61
2022-10-19T16:06:42.891Z,89.36
2022-10-19T16:09:18.574Z,88.72
2022-10-19T16:11:46.178Z,89.29
2022-10-19T16:14:13.809Z,88.70
2022-10-19T16:16:41.932Z,89.06
2022-10-19T16:19:10.690Z,90.11
2022-10-19T16:21:38.356Z,89.82
2022-10-19T16:24:06.547Z,89.92
2022-10-19T16:26:35.758Z,89.63
2022-10-19T16:29:03.475Z,89.73
2022-10-19T16:31:31.546Z,89.47
2022-10-19T16:33:59.090Z,90.08
2022-10-19T16:36:26.885Z,90.82
2022-10-19T16:38:54.454Z,91.29
2022-10-19T16:41:22.345Z,91.42
2022-10-19T16:43:56.149Z,91.75
2022-10-19T16:46:24.769Z,91.95
2022-10-19T16:48:52.595Z,91.54
2022-10-19T16:51:36.999Z,91.60
2022-10-19T16:54:07.860Z,92.01
2022-10-19T16:56:36.679Z,92.59
2022-10-19T16:59:07.121Z,92.23
2022-10-19T17:01:35.909Z,92.56
2022-10-19T17:04:03.629Z,92.76
2022-10-19T17:06:31.227Z,93.43
2022-10-19T17:09:36.738Z,93.79
2022-10-19T17:11:47.492Z,94.25
2022-10-19T17:14:16.411Z,94.44
2022-10-19T17:16:44.106Z,94.53
2022-10-19T17:19:12.279Z,94.95
2022-10-19T17:21:42.066Z,95.22
2022-10-19T17:24:20.079Z,95.41
2022-10-19T17:26:49.236Z,95.94
2022-10-19T17:29:18.222Z,95.94
2022-10-19T17:31:46.119Z,96.20
2022-10-19T17:34:13.704Z,96.71
2022-10-19T17:36:44.418Z,97.06
2022-10-19T17:39:15.107Z,96.94
2022-10-19T17:41:42.669Z,97.18
2022-10-19T17:44:10.398Z,97.60
2022-10-19T17:46:39.897Z,97.99
2022-10-19T17:49:07.669Z,98.05
2022-10-19T17:51:37.399Z,98.07
2022-10-19T17:54:08.309Z,97.30
2022-10-19T17:56:37.744Z,96.94
2022-10-19T17:59:07.990Z,97.03
2022-10-19T18:01:35.945Z,96.96
2022-10-19T18:04:05.983Z,97.61
2022-10-19T18:06:37.381Z,97.59
2022-10-19T18:09:07.517Z,98.21
2022-10-19T18:11:38.539Z,98.53
2022-10-19T18:14:08.810Z,98.70
2022-10-19T18:16:38.778Z,98.44
2022-10-19T18:19:08.846Z,99.15
2022-10-19T18:21:39.450Z,99.44
2022-10-19T18:24:11.300Z,99.46
2022-10-19T18:26:42.211Z,99.23
2022-10-19T18:29:12.580Z,98.29
2022-10-19T18:31:41.270Z,97.70
2022-10-19T18:34:15.749Z,97.32
2022-10-19T18:36:43.668Z,96.97
2022-10-19T18:39:12.116Z,97.01
2022-10-19T18:41:40.487Z,96.97
2022-10-19T18:44:09.394Z,97.50
2022-10-19T18:46:38.329Z,97.27
2022-10-19T18:49:08.394Z,96.80
2022-10-19T18:51:37.481Z,96.63
2022-10-19T18:54:05.637Z,96.84
2022-10-19T18:56:36.332Z,96.88
2022-10-19T18:59:04.365Z,97.48
2022-10-19T19:01:31.927Z,97.57
2022-10-19T19:04:06.461Z,98.04
2022-10-19T19:06:36.066Z,98.69
2022-10-19T19:09:09.082Z,98.64
2022-10-19T19:11:38.510Z,98.54
2022-10-19T19:14:08.126Z,98.20
2022-10-19T19:16:38.280Z,97.98
2022-10-19T19:19:06.888Z,97.95
2022-10-19T19:21:35.507Z,98.87
2022-10-19T19:24:07.597Z,98.86
2022-10-19T19:26:38.895Z,98.82
2022-10-19T19:29:06.497Z,98.45
2022-10-19T19:31:34.721Z,98.42
2022-10-19T19:34:03.063Z,98.50
2022-10-19T19:36:30.688Z,98.81
2022-10-19T19:38:59.079Z,98.91
2022-10-19T19:41:28.884Z,99.21
2022-10-19T19:43:57.458Z,99.49
2022-10-19T19:46:25.041Z,99.89
2022-10-19T19:48:58.568Z,99.93
2022-10-19T19:51:26.574Z,99.76
2022-10-19T19:53:54.301Z,99.38
2022-10-19T19:56:21.808Z,99.23
2022-10-19T19:58:55.519Z,98.97
2022-10-19T20:01:23.685Z,99.47
2022-10-19T20:03:51.790Z,99.52
2022-10-19T20:06:23.658Z,100.00
2022-10-19T20:08:53.699Z,100.00
2022-10-19T20:11:21.908Z,100.00
2022-10-19T20:13:51.751Z,100.00
2022-10-19T20:16:25.131Z,100.00
2022-10-19T20:19:00.258Z,99.96
2022-10-19T20:21:28.111Z,100.00
2022-10-19T20:23:55.736Z,100.00
2022-10-19T20:26:24.966Z,100.00
2022-10-19T20:28:54.430Z,100.00
2022-10-19T20:31:23.032Z,100.00
2022-10-19T20:33:50.706Z,100.00
2022-10-19T20:36:20.939Z,100.00
2022-10-19T20:38:50.291Z,100.00
2022-10-19T20:41:18.698Z,100.00
2022-10-19T20:43:46.638Z,100.00
2022-10-19T20:46:17.688Z,100.00
2022-10-19T20:48:45.557Z,100.00
2022-10-19T20:51:16.031Z,100.00
2022-10-19T20:53:46.207Z,100.00
2022-10-19T20:56:15.158Z,100.00
2022-10-19T20:58:43.837Z,100.00
2022-10-19T21:01:14.024Z,100.00
2022-10-19T21:03:46.982Z,100.00
2022-10-19T21:06:14.938Z,100.00
2022-10-19T21:08:43.557Z,100.00
2022-10-19T21:11:15.541Z,100.00
2022-10-19T21:13:43.756Z,100.00
2022-10-19T21:16:13.799Z,100.00
2022-10-19T21:18:43.663Z,100.00
2022-10-19T21:21:13.520Z,100.00
2022-10-19T21:23:41.350Z,100.00
2022-10-19T21:26:08.946Z,99.91
2022-10-19T21:28:37.193Z,99.88
2022-10-19T21:31:05.775Z,99.67
2022-10-19T21:33:33.755Z,99.27
2022-10-19T21:36:03.464Z,99.30
2022-10-19T21:38:31.780Z,99.08
2022-10-19T21:40:59.717Z,99.28
2022-10-19T21:43:28.295Z,99.32
2022-10-19T21:45:56.325Z,99.35
2022-10-19T21:48:24.706Z,98.59
2022-10-19T21:50:52.250Z,97.83
2022-10-19T21:53:23.407Z,98.37
2022-10-19T21:55:51.870Z,98.03
2022-10-19T21:58:21.520Z,98.36
2022-10-19T22:00:49.503Z,98.01
2022-10-19T22:03:19.018Z,98.71
2022-10-19T22:05:53.291Z,98.33
2022-10-19T22:08:22.155Z,97.88
2022-10-19T22:10:49.754Z,97.36
2022-10-19T22:13:17.386Z,97.63
2022-10-19T22:15:45.124Z,97.42
2022-10-19T22:18:12.689Z,97.51
2022-10-19T22:20:41.114Z,96.80
2022-10-19T22:23:09.002Z,96.10
2022-10-19T22:25:37.886Z,95.87
2022-10-19T22:28:05.661Z,95.60
2022-10-19T22:30:33.245Z,94.83
2022-10-19T22:33:00.786Z,94.47
2022-10-19T22:35:28.397Z,94.11
2022-10-19T22:37:56.013Z,93.57
2022-10-19T22:40:23.669Z,93.37
2022-10-19T22:42:52.578Z,94.17
2022-10-19T22:45:20.164Z,94.79
2022-10-19T22:47:47.668Z,95.50
2022-10-19T22:50:15.335Z,95.58
2022-10-19T22:52:42.890Z,95.68
2022-10-19T22:55:10.655Z,95.55
2022-10-19T22:57:38.188Z,95.95
2022-10-19T23:00:08.793Z,96.58
2022-10-19T23:02:36.411Z,96.14
2022-10-19T23:05:04.302Z,96.57
2022-10-19T23:07:31.813Z,96.33
2022-10-19T23:09:59.413Z,96.50
2022-10-19T23:12:26.984Z,96.62
2022-10-19T23:14:54.720Z,97.07
2022-10-19T23:17:23.739Z,96.92
2022-10-19T23:19:51.298Z,97.12
2022-10-19T23:22:18.852Z,97.68
2022-10-19T23:24:46.483Z,97.21
2022-10-19T23:27:14.496Z,97.75
2022-10-19T23:29:42.189Z,97.56
2022-10-19T23:32:09.694Z,97.39
2022-10-19T23:34:40.231Z,97.19
2022-10-19T23:37:09.765Z,96.42
2022-10-19T23:39:37.296Z,96.23
2022-10-19T23:42:04.958Z,95.79
2022-10-19T23:44:32.613Z,96.50
2022-10-19T23:47:00.139Z,96.70
2022-10-19T23:49:27.728Z,96.71
2022-10-19T23:51:56.735Z,96.59
2022-10-19T23:54:24.558Z,96.39
2022-10-19T23:56:52.120Z,96.75
2022-10-19T23:59:19.667Z,96.52
